sensor_id;sensor_type;location;lat;lon;timestamp;P1;durP1;ratioP1;P2;durP2;ratioP2
57327;SDS011;43162;51.040;18.244;2024-02-16T00:00:07;53.90;;;29.20;;
57327;SDS011;43162;51.040;18.244;2024-02-16T00:02:33;54.80;;;31.30;;
57327;SDS011;43162;51.040;18.244;2024-02-16T00:04:58;49.90;;;27.80;;
57327;SDS011;43162;51.040;18.244;2024-02-16T00:07:24;47.60;;;26.30;;
57327;SDS011;43162;51.040;18.244;2024-02-16T00:09:50;43.20;;;24.10;;
57327;SDS011;43162;51.040;18.244;2024-02-16T00:12:16;48.20;;;26.10;;
57327;SDS011;43162;51.040;18.244;2024-02-16T00:14:42;47.70;;;25.70;;
57327;SDS011;43162;51.040;18.244;2024-02-16T00:17:08;55.40;;;31.20;;
57327;SDS011;43162;51.040;18.244;2024-02-16T00:19:35;51.80;;;29.10;;
57327;SDS011;43162;51.040;18.244;2024-02-16T00:22:01;62.10;;;33.90;;
57327;SDS011;43162;51.040;18.244;2024-02-16T00:24:27;55.70;;;31.40;;
57327;SDS011;43162;51.040;18.244;2024-02-16T00:26:53;50.20;;;26.60;;
57327;SDS011;43162;51.040;18.244;2024-02-16T00:29:18;51.10;;;27.00;;
57327;SDS011;43162;51.040;18.244;2024-02-16T00:31:46;50.30;;;26.50;;
57327;SDS011;43162;51.040;18.244;2024-02-16T00:34:12;45.00;;;24.00;;
57327;SDS011;43162;51.040;18.244;2024-02-16T00:36:37;41.10;;;25.60;;
57327;SDS011;43162;51.040;18.244;2024-02-16T00:39:03;50.50;;;27.40;;
57327;SDS011;43162;51.040;18.244;2024-02-16T00:41:29;55.30;;;29.20;;
57327;SDS011;43162;51.040;18.244;2024-02-16T00:43:54;58.10;;;33.90;;
57327;SDS011;43162;51.040;18.244;2024-02-16T00:46:21;52.00;;;29.30;;
57327;SDS011;43162;51.040;18.244;2024-02-16T00:48:49;48.20;;;26.00;;
57327;SDS011;43162;51.040;18.244;2024-02-16T00:51:15;43.50;;;23.70;;
57327;SDS011;43162;51.040;18.244;2024-02-16T00:53:41;47.10;;;25.30;;
57327;SDS011;43162;51.040;18.244;2024-02-16T00:56:06;49.00;;;27.10;;
57327;SDS011;43162;51.040;18.244;2024-02-16T00:58:32;39.20;;;23.30;;
57327;SDS011;43162;51.040;18.244;2024-02-16T01:00:58;47.90;;;26.40;;
57327;SDS011;43162;51.040;18.244;2024-02-16T01:03:24;43.70;;;24.70;;
57327;SDS011;43162;51.040;18.244;2024-02-16T01:05:52;46.00;;;25.50;;
57327;SDS011;43162;51.040;18.244;2024-02-16T01:08:18;44.60;;;23.30;;
57327;SDS011;43162;51.040;18.244;2024-02-16T01:10:44;43.30;;;22.40;;
57327;SDS011;43162;51.040;18.244;2024-02-16T01:13:09;38.70;;;21.10;;
57327;SDS011;43162;51.040;18.244;2024-02-16T01:15:35;40.00;;;21.30;;
57327;SDS011;43162;51.040;18.244;2024-02-16T01:18:03;39.80;;;22.90;;
57327;SDS011;43162;51.040;18.244;2024-02-16T01:20:30;46.40;;;28.50;;
57327;SDS011;43162;51.040;18.244;2024-02-16T01:22:57;40.10;;;25.80;;
57327;SDS011;43162;51.040;18.244;2024-02-16T01:25:22;59.30;;;37.00;;
57327;SDS011;43162;51.040;18.244;2024-02-16T01:27:48;47.60;;;29.90;;
57327;SDS011;43162;51.040;18.244;2024-02-16T01:30:14;38.60;;;22.80;;
57327;SDS011;43162;51.040;18.244;2024-02-16T01:32:41;42.60;;;22.80;;
57327;SDS011;43162;51.040;18.244;2024-02-16T01:35:07;36.30;;;21.10;;
57327;SDS011;43162;51.040;18.244;2024-02-16T01:37:32;40.30;;;23.60;;
57327;SDS011;43162;51.040;18.244;2024-02-16T01:39:58;51.80;;;26.30;;
57327;SDS011;43162;51.040;18.244;2024-02-16T01:42:24;45.90;;;28.90;;
57327;SDS011;43162;51.040;18.244;2024-02-16T01:44:50;43.80;;;24.40;;
57327;SDS011;43162;51.040;18.244;2024-02-16T01:47:16;43.50;;;24.70;;
57327;SDS011;43162;51.040;18.244;2024-02-16T01:49:44;44.00;;;24.00;;
57327;SDS011;43162;51.040;18.244;2024-02-16T01:52:10;40.50;;;21.60;;
57327;SDS011;43162;51.040;18.244;2024-02-16T01:54:36;35.80;;;21.30;;
57327;SDS011;43162;51.040;18.244;2024-02-16T01:57:04;41.30;;;21.20;;
57327;SDS011;43162;51.040;18.244;2024-02-16T01:59:31;42.80;;;23.70;;
57327;SDS011;43162;51.040;18.244;2024-02-16T02:01:59;43.20;;;25.20;;
57327;SDS011;43162;51.040;18.244;2024-02-16T02:04:25;50.40;;;29.40;;
57327;SDS011;43162;51.040;18.244;2024-02-16T02:06:51;41.40;;;25.60;;
57327;SDS011;43162;51.040;18.244;2024-02-16T02:09:17;37.80;;;20.60;;
57327;SDS011;43162;51.040;18.244;2024-02-16T02:11:42;36.80;;;21.10;;
57327;SDS011;43162;51.040;18.244;2024-02-16T02:14:09;36.30;;;19.90;;
57327;SDS011;43162;51.040;18.244;2024-02-16T02:16:35;31.20;;;17.20;;
57327;SDS011;43162;51.040;18.244;2024-02-16T02:19:02;37.50;;;19.70;;
57327;SDS011;43162;51.040;18.244;2024-02-16T02:21:28;40.50;;;22.00;;
57327;SDS011;43162;51.040;18.244;2024-02-16T02:23:53;40.20;;;21.70;;
57327;SDS011;43162;51.040;18.244;2024-02-16T02:26:20;37.60;;;21.80;;
57327;SDS011;43162;51.040;18.244;2024-02-16T02:28:46;33.70;;;19.60;;
57327;SDS011;43162;51.040;18.244;2024-02-16T02:31:11;36.60;;;21.50;;
57327;SDS011;43162;51.040;18.244;2024-02-16T02:33:37;37.80;;;19.40;;
57327;SDS011;43162;51.040;18.244;2024-02-16T02:36:03;36.40;;;20.10;;
57327;SDS011;43162;51.040;18.244;2024-02-16T02:38:30;42.30;;;23.70;;
57327;SDS011;43162;51.040;18.244;2024-02-16T02:40:55;45.30;;;25.30;;
57327;SDS011;43162;51.040;18.244;2024-02-16T02:43:22;48.60;;;27.30;;
57327;SDS011;43162;51.040;18.244;2024-02-16T02:45:48;43.30;;;25.90;;
57327;SDS011;43162;51.040;18.244;2024-02-16T02:48:14;44.80;;;24.90;;
57327;SDS011;43162;51.040;18.244;2024-02-16T02:50:39;41.40;;;22.00;;
57327;SDS011;43162;51.040;18.244;2024-02-16T02:53:05;35.30;;;20.40;;
57327;SDS011;43162;51.040;18.244;2024-02-16T02:55:31;42.40;;;22.00;;
57327;SDS011;43162;51.040;18.244;2024-02-16T02:57:57;41.50;;;21.10;;
57327;SDS011;43162;51.040;18.244;2024-02-16T03:00:23;43.80;;;21.40;;
57327;SDS011;43162;51.040;18.244;2024-02-16T03:02:49;42.50;;;23.70;;
57327;SDS011;43162;51.040;18.244;2024-02-16T03:05:14;43.30;;;25.20;;
57327;SDS011;43162;51.040;18.244;2024-02-16T03:07:40;47.70;;;27.20;;
57327;SDS011;43162;51.040;18.244;2024-02-16T03:10:06;44.40;;;24.80;;
57327;SDS011;43162;51.040;18.244;2024-02-16T03:12:34;34.00;;;21.30;;
57327;SDS011;43162;51.040;18.244;2024-02-16T03:15:00;37.20;;;20.80;;
57327;SDS011;43162;51.040;18.244;2024-02-16T03:17:25;36.60;;;20.50;;
57327;SDS011;43162;51.040;18.244;2024-02-16T03:19:51;36.40;;;21.30;;
57327;SDS011;43162;51.040;18.244;2024-02-16T03:22:17;43.50;;;27.10;;
57327;SDS011;43162;51.040;18.244;2024-02-16T03:24:42;36.00;;;20.90;;
57327;SDS011;43162;51.040;18.244;2024-02-16T03:27:10;40.60;;;23.20;;
57327;SDS011;43162;51.040;18.244;2024-02-16T03:29:36;40.10;;;23.40;;
57327;SDS011;43162;51.040;18.244;2024-02-16T03:32:01;39.80;;;21.20;;
57327;SDS011;43162;51.040;18.244;2024-02-16T03:34:27;40.30;;;21.40;;
57327;SDS011;43162;51.040;18.244;2024-02-16T03:36:52;34.80;;;18.60;;
57327;SDS011;43162;51.040;18.244;2024-02-16T03:39:18;40.70;;;20.50;;
57327;SDS011;43162;51.040;18.244;2024-02-16T03:41:45;38.30;;;21.50;;
57327;SDS011;43162;51.040;18.244;2024-02-16T03:44:14;38.00;;;23.20;;
57327;SDS011;43162;51.040;18.244;2024-02-16T03:46:41;40.20;;;24.30;;
57327;SDS011;43162;51.040;18.244;2024-02-16T03:49:08;38.30;;;23.30;;
57327;SDS011;43162;51.040;18.244;2024-02-16T03:51:35;36.20;;;21.50;;
57327;SDS011;43162;51.040;18.244;2024-02-16T03:54:01;35.40;;;20.00;;
57327;SDS011;43162;51.040;18.244;2024-02-16T03:56:29;34.70;;;20.10;;
57327;SDS011;43162;51.040;18.244;2024-02-16T03:58:55;35.60;;;19.50;;
57327;SDS011;43162;51.040;18.244;2024-02-16T04:01:21;40.60;;;19.90;;
57327;SDS011;43162;51.040;18.244;2024-02-16T04:03:47;35.80;;;20.60;;
57327;SDS011;43162;51.040;18.244;2024-02-16T04:06:12;42.20;;;25.00;;
57327;SDS011;43162;51.040;18.244;2024-02-16T04:08:38;38.40;;;24.90;;
57327;SDS011;43162;51.040;18.244;2024-02-16T04:11:04;39.70;;;22.40;;
57327;SDS011;43162;51.040;18.244;2024-02-16T04:13:30;36.40;;;19.90;;
57327;SDS011;43162;51.040;18.244;2024-02-16T04:15:57;33.20;;;20.10;;
57327;SDS011;43162;51.040;18.244;2024-02-16T04:18:23;31.00;;;17.90;;
57327;SDS011;43162;51.040;18.244;2024-02-16T04:20:49;36.50;;;18.80;;
57327;SDS011;43162;51.040;18.244;2024-02-16T04:23:15;39.20;;;22.90;;
57327;SDS011;43162;51.040;18.244;2024-02-16T04:25:40;42.60;;;23.80;;
57327;SDS011;43162;51.040;18.244;2024-02-16T04:28:05;45.50;;;24.10;;
57327;SDS011;43162;51.040;18.244;2024-02-16T04:30:31;41.20;;;22.30;;
57327;SDS011;43162;51.040;18.244;2024-02-16T04:32:56;37.80;;;20.10;;
57327;SDS011;43162;51.040;18.244;2024-02-16T04:35:22;31.30;;;20.30;;
57327;SDS011;43162;51.040;18.244;2024-02-16T04:37:47;37.30;;;20.50;;
57327;SDS011;43162;51.040;18.244;2024-02-16T04:40:13;33.00;;;19.40;;
57327;SDS011;43162;51.040;18.244;2024-02-16T04:42:39;36.50;;;22.00;;
57327;SDS011;43162;51.040;18.244;2024-02-16T04:45:10;51.10;;;30.30;;
57327;SDS011;43162;51.040;18.244;2024-02-16T04:47:36;42.20;;;28.50;;
57327;SDS011;43162;51.040;18.244;2024-02-16T04:50:02;48.30;;;30.00;;
57327;SDS011;43162;51.040;18.244;2024-02-16T04:52:28;42.40;;;24.50;;
57327;SDS011;43162;51.040;18.244;2024-02-16T04:54:54;37.60;;;22.70;;
57327;SDS011;43162;51.040;18.244;2024-02-16T04:57:19;36.10;;;20.20;;
57327;SDS011;43162;51.040;18.244;2024-02-16T04:59:46;33.80;;;19.60;;
57327;SDS011;43162;51.040;18.244;2024-02-16T05:02:11;36.50;;;19.60;;
57327;SDS011;43162;51.040;18.244;2024-02-16T05:04:36;49.10;;;28.10;;
57327;SDS011;43162;51.040;18.244;2024-02-16T05:07:02;38.70;;;24.40;;
57327;SDS011;43162;51.040;18.244;2024-02-16T05:09:28;49.80;;;32.30;;
57327;SDS011;43162;51.040;18.244;2024-02-16T05:11:54;43.60;;;26.20;;
57327;SDS011;43162;51.040;18.244;2024-02-16T05:14:19;40.90;;;24.40;;
57327;SDS011;43162;51.040;18.244;2024-02-16T05:16:45;36.10;;;20.80;;
57327;SDS011;43162;51.040;18.244;2024-02-16T05:19:11;36.10;;;19.80;;
57327;SDS011;43162;51.040;18.244;2024-02-16T05:21:37;38.80;;;21.20;;
57327;SDS011;43162;51.040;18.244;2024-02-16T05:24:02;39.20;;;22.90;;
57327;SDS011;43162;51.040;18.244;2024-02-16T05:26:28;42.90;;;26.40;;
57327;SDS011;43162;51.040;18.244;2024-02-16T05:28:54;41.80;;;24.90;;
57327;SDS011;43162;51.040;18.244;2024-02-16T05:31:20;45.80;;;30.30;;
57327;SDS011;43162;51.040;18.244;2024-02-16T05:33:47;39.00;;;27.70;;
57327;SDS011;43162;51.040;18.244;2024-02-16T05:36:17;37.20;;;21.90;;
57327;SDS011;43162;51.040;18.244;2024-02-16T05:38:45;39.10;;;21.00;;
57327;SDS011;43162;51.040;18.244;2024-02-16T05:41:11;35.60;;;19.70;;
57327;SDS011;43162;51.040;18.244;2024-02-16T05:43:37;32.50;;;19.70;;
57327;SDS011;43162;51.040;18.244;2024-02-16T05:46:03;41.60;;;23.00;;
57327;SDS011;43162;51.040;18.244;2024-02-16T05:48:34;42.00;;;26.00;;
57327;SDS011;43162;51.040;18.244;2024-02-16T05:51:03;36.50;;;25.70;;
57327;SDS011;43162;51.040;18.244;2024-02-16T05:53:30;39.00;;;25.00;;
57327;SDS011;43162;51.040;18.244;2024-02-16T05:55:56;46.30;;;26.60;;
57327;SDS011;43162;51.040;18.244;2024-02-16T05:58:23;39.70;;;22.30;;
57327;SDS011;43162;51.040;18.244;2024-02-16T06:00:49;40.10;;;21.90;;
57327;SDS011;43162;51.040;18.244;2024-02-16T06:03:15;38.80;;;21.20;;
57327;SDS011;43162;51.040;18.244;2024-02-16T06:05:41;44.80;;;25.40;;
57327;SDS011;43162;51.040;18.244;2024-02-16T06:08:10;41.60;;;26.40;;
57327;SDS011;43162;51.040;18.244;2024-02-16T06:10:35;42.60;;;28.80;;
57327;SDS011;43162;51.040;18.244;2024-02-16T06:13:01;47.70;;;29.60;;
57327;SDS011;43162;51.040;18.244;2024-02-16T06:15:27;37.90;;;23.20;;
57327;SDS011;43162;51.040;18.244;2024-02-16T06:17:52;42.80;;;21.80;;
57327;SDS011;43162;51.040;18.244;2024-02-16T06:20:18;39.10;;;20.50;;
57327;SDS011;43162;51.040;18.244;2024-02-16T06:22:44;30.90;;;19.70;;
57327;SDS011;43162;51.040;18.244;2024-02-16T06:25:10;40.80;;;26.00;;
57327;SDS011;43162;51.040;18.244;2024-02-16T06:27:35;54.00;;;34.20;;
57327;SDS011;43162;51.040;18.244;2024-02-16T06:30:01;75.50;;;51.90;;
57327;SDS011;43162;51.040;18.244;2024-02-16T06:34:57;63.90;;;42.10;;
57327;SDS011;43162;51.040;18.244;2024-02-16T06:37:22;58.80;;;36.20;;
57327;SDS011;43162;51.040;18.244;2024-02-16T06:39:48;52.90;;;33.20;;
57327;SDS011;43162;51.040;18.244;2024-02-16T06:42:14;46.40;;;27.10;;
57327;SDS011;43162;51.040;18.244;2024-02-16T06:44:40;48.30;;;27.80;;
57327;SDS011;43162;51.040;18.244;2024-02-16T06:47:05;43.00;;;30.10;;
57327;SDS011;43162;51.040;18.244;2024-02-16T06:49:31;46.70;;;30.20;;
57327;SDS011;43162;51.040;18.244;2024-02-16T06:51:56;48.10;;;36.40;;
57327;SDS011;43162;51.040;18.244;2024-02-16T06:54:22;45.20;;;27.10;;
57327;SDS011;43162;51.040;18.244;2024-02-16T06:56:49;43.00;;;24.30;;
57327;SDS011;43162;51.040;18.244;2024-02-16T06:59:16;41.60;;;23.70;;
57327;SDS011;43162;51.040;18.244;2024-02-16T07:01:43;35.20;;;21.80;;
57327;SDS011;43162;51.040;18.244;2024-02-16T07:04:08;38.50;;;24.80;;
57327;SDS011;43162;51.040;18.244;2024-02-16T07:06:34;35.60;;;23.40;;
57327;SDS011;43162;51.040;18.244;2024-02-16T07:09:00;37.60;;;22.20;;
57327;SDS011;43162;51.040;18.244;2024-02-16T07:11:28;38.30;;;26.50;;
57327;SDS011;43162;51.040;18.244;2024-02-16T07:13:53;41.00;;;24.30;;
57327;SDS011;43162;51.040;18.244;2024-02-16T07:16:20;32.30;;;21.10;;
57327;SDS011;43162;51.040;18.244;2024-02-16T07:18:45;35.40;;;21.20;;
57327;SDS011;43162;51.040;18.244;2024-02-16T07:21:11;34.00;;;20.10;;
57327;SDS011;43162;51.040;18.244;2024-02-16T07:23:37;31.80;;;20.80;;
57327;SDS011;43162;51.040;18.244;2024-02-16T07:26:03;32.70;;;21.00;;
57327;SDS011;43162;51.040;18.244;2024-02-16T07:28:29;35.50;;;22.90;;
57327;SDS011;43162;51.040;18.244;2024-02-16T07:30:56;40.30;;;22.70;;
57327;SDS011;43162;51.040;18.244;2024-02-16T07:33:22;34.90;;;22.10;;
57327;SDS011;43162;51.040;18.244;2024-02-16T07:35:49;33.40;;;20.00;;
57327;SDS011;43162;51.040;18.244;2024-02-16T07:38:16;30.20;;;19.90;;
57327;SDS011;43162;51.040;18.244;2024-02-16T07:40:42;36.00;;;21.00;;
57327;SDS011;43162;51.040;18.244;2024-02-16T07:43:08;32.60;;;20.10;;
57327;SDS011;43162;51.040;18.244;2024-02-16T07:45:33;30.00;;;18.10;;
57327;SDS011;43162;51.040;18.244;2024-02-16T07:47:59;31.10;;;19.50;;
57327;SDS011;43162;51.040;18.244;2024-02-16T07:50:30;32.00;;;19.30;;
57327;SDS011;43162;51.040;18.244;2024-02-16T07:52:55;26.50;;;19.00;;
57327;SDS011;43162;51.040;18.244;2024-02-16T07:55:21;31.70;;;20.00;;
57327;SDS011;43162;51.040;18.244;2024-02-16T07:57:48;27.40;;;18.80;;
57327;SDS011;43162;51.040;18.244;2024-02-16T08:00:13;36.00;;;20.70;;
57327;SDS011;43162;51.040;18.244;2024-02-16T08:02:41;34.70;;;19.00;;
57327;SDS011;43162;51.040;18.244;2024-02-16T08:05:11;27.10;;;16.50;;
57327;SDS011;43162;51.040;18.244;2024-02-16T08:07:38;41.80;;;21.30;;
57327;SDS011;43162;51.040;18.244;2024-02-16T08:10:06;32.70;;;19.70;;
57327;SDS011;43162;51.040;18.244;2024-02-16T08:12:33;29.70;;;17.60;;
57327;SDS011;43162;51.040;18.244;2024-02-16T08:15:04;33.70;;;19.10;;
57327;SDS011;43162;51.040;18.244;2024-02-16T08:17:35;25.60;;;16.20;;
57327;SDS011;43162;51.040;18.244;2024-02-16T08:20:01;24.50;;;16.00;;
57327;SDS011;43162;51.040;18.244;2024-02-16T08:22:27;23.10;;;14.40;;
57327;SDS011;43162;51.040;18.244;2024-02-16T08:24:53;20.70;;;14.60;;
57327;SDS011;43162;51.040;18.244;2024-02-16T08:27:18;23.80;;;16.20;;
57327;SDS011;43162;51.040;18.244;2024-02-16T08:29:44;23.90;;;17.20;;
57327;SDS011;43162;51.040;18.244;2024-02-16T08:32:10;27.00;;;16.40;;
57327;SDS011;43162;51.040;18.244;2024-02-16T08:34:36;23.40;;;14.50;;
57327;SDS011;43162;51.040;18.244;2024-02-16T08:37:05;21.80;;;14.50;;
57327;SDS011;43162;51.040;18.244;2024-02-16T08:39:31;19.80;;;14.10;;
57327;SDS011;43162;51.040;18.244;2024-02-16T08:41:59;25.30;;;14.00;;
57327;SDS011;43162;51.040;18.244;2024-02-16T08:44:26;18.20;;;12.60;;
57327;SDS011;43162;51.040;18.244;2024-02-16T08:46:51;21.20;;;12.10;;
57327;SDS011;43162;51.040;18.244;2024-02-16T08:49:18;26.30;;;16.30;;
57327;SDS011;43162;51.040;18.244;2024-02-16T08:51:45;22.80;;;13.30;;
57327;SDS011;43162;51.040;18.244;2024-02-16T08:54:10;24.90;;;12.70;;
57327;SDS011;43162;51.040;18.244;2024-02-16T08:56:36;22.30;;;12.80;;
57327;SDS011;43162;51.040;18.244;2024-02-16T08:59:04;23.70;;;13.00;;
57327;SDS011;43162;51.040;18.244;2024-02-16T09:01:32;24.50;;;13.50;;
57327;SDS011;43162;51.040;18.244;2024-02-16T09:03:57;22.40;;;13.10;;
57327;SDS011;43162;51.040;18.244;2024-02-16T09:06:23;19.40;;;11.50;;
57327;SDS011;43162;51.040;18.244;2024-02-16T09:08:48;18.40;;;11.60;;
57327;SDS011;43162;51.040;18.244;2024-02-16T09:11:14;16.30;;;10.40;;
57327;SDS011;43162;51.040;18.244;2024-02-16T09:13:39;17.40;;;9.50;;
57327;SDS011;43162;51.040;18.244;2024-02-16T09:16:05;20.00;;;11.70;;
57327;SDS011;43162;51.040;18.244;2024-02-16T09:18:31;22.40;;;12.20;;
57327;SDS011;43162;51.040;18.244;2024-02-16T09:20:57;15.20;;;10.70;;
57327;SDS011;43162;51.040;18.244;2024-02-16T09:23:22;12.40;;;9.10;;
57327;SDS011;43162;51.040;18.244;2024-02-16T09:25:48;14.80;;;9.80;;
57327;SDS011;43162;51.040;18.244;2024-02-16T09:28:14;19.00;;;10.80;;
57327;SDS011;43162;51.040;18.244;2024-02-16T09:30:40;16.00;;;9.60;;
57327;SDS011;43162;51.040;18.244;2024-02-16T09:33:06;20.40;;;10.10;;
57327;SDS011;43162;51.040;18.244;2024-02-16T09:35:32;10.70;;;7.50;;
57327;SDS011;43162;51.040;18.244;2024-02-16T09:37:58;22.10;;;10.00;;
57327;SDS011;43162;51.040;18.244;2024-02-16T09:40:23;14.50;;;9.50;;
57327;SDS011;43162;51.040;18.244;2024-02-16T09:42:49;16.00;;;9.00;;
57327;SDS011;43162;51.040;18.244;2024-02-16T09:45:16;14.50;;;9.60;;
57327;SDS011;43162;51.040;18.244;2024-02-16T09:47:42;16.60;;;8.20;;
57327;SDS011;43162;51.040;18.244;2024-02-16T09:50:10;12.70;;;7.50;;
57327;SDS011;43162;51.040;18.244;2024-02-16T09:52:36;15.90;;;8.70;;
57327;SDS011;43162;51.040;18.244;2024-02-16T09:55:01;13.90;;;8.40;;
57327;SDS011;43162;51.040;18.244;2024-02-16T09:57:27;13.30;;;8.20;;
57327;SDS011;43162;51.040;18.244;2024-02-16T09:59:56;12.60;;;7.70;;
57327;SDS011;43162;51.040;18.244;2024-02-16T10:02:21;10.80;;;7.50;;
57327;SDS011;43162;51.040;18.244;2024-02-16T10:04:47;16.10;;;8.70;;
57327;SDS011;43162;51.040;18.244;2024-02-16T10:07:12;17.90;;;10.50;;
57327;SDS011;43162;51.040;18.244;2024-02-16T10:09:38;15.10;;;8.90;;
57327;SDS011;43162;51.040;18.244;2024-02-16T10:12:05;17.60;;;8.60;;
57327;SDS011;43162;51.040;18.244;2024-02-16T10:14:32;13.90;;;8.10;;
57327;SDS011;43162;51.040;18.244;2024-02-16T10:17:01;13.80;;;9.20;;
57327;SDS011;43162;51.040;18.244;2024-02-16T10:19:28;10.80;;;7.20;;
57327;SDS011;43162;51.040;18.244;2024-02-16T10:22:05;10.50;;;6.00;;
57327;SDS011;43162;51.040;18.244;2024-02-16T10:24:35;10.60;;;5.90;;
57327;SDS011;43162;51.040;18.244;2024-02-16T10:27:00;13.40;;;6.40;;
57327;SDS011;43162;51.040;18.244;2024-02-16T10:29:26;12.60;;;6.50;;
57327;SDS011;43162;51.040;18.244;2024-02-16T10:31:52;9.40;;;6.10;;
57327;SDS011;43162;51.040;18.244;2024-02-16T10:34:18;13.50;;;7.40;;
57327;SDS011;43162;51.040;18.244;2024-02-16T10:36:45;10.90;;;6.10;;
57327;SDS011;43162;51.040;18.244;2024-02-16T10:39:11;8.90;;;5.50;;
57327;SDS011;43162;51.040;18.244;2024-02-16T10:41:40;9.50;;;6.30;;
57327;SDS011;43162;51.040;18.244;2024-02-16T10:44:06;8.50;;;5.40;;
57327;SDS011;43162;51.040;18.244;2024-02-16T10:46:32;11.80;;;6.00;;
57327;SDS011;43162;51.040;18.244;2024-02-16T10:48:58;11.30;;;5.70;;
57327;SDS011;43162;51.040;18.244;2024-02-16T10:51:27;7.20;;;5.40;;
57327;SDS011;43162;51.040;18.244;2024-02-16T10:53:55;9.40;;;6.00;;
57327;SDS011;43162;51.040;18.244;2024-02-16T10:56:37;10.50;;;5.80;;
57327;SDS011;43162;51.040;18.244;2024-02-16T10:59:05;8.50;;;5.70;;
57327;SDS011;43162;51.040;18.244;2024-02-16T11:01:36;16.60;;;9.10;;
57327;SDS011;43162;51.040;18.244;2024-02-16T11:04:08;9.90;;;7.20;;
57327;SDS011;43162;51.040;18.244;2024-02-16T11:06:44;10.40;;;6.90;;
57327;SDS011;43162;51.040;18.244;2024-02-16T11:09:11;10.80;;;6.60;;
57327;SDS011;43162;51.040;18.244;2024-02-16T11:11:37;12.20;;;6.40;;
57327;SDS011;43162;51.040;18.244;2024-02-16T11:14:02;13.00;;;6.80;;
57327;SDS011;43162;51.040;18.244;2024-02-16T11:16:29;11.20;;;7.10;;
57327;SDS011;43162;51.040;18.244;2024-02-16T11:18:55;11.70;;;6.10;;
57327;SDS011;43162;51.040;18.244;2024-02-16T11:21:21;10.00;;;5.80;;
57327;SDS011;43162;51.040;18.244;2024-02-16T11:23:47;9.50;;;5.70;;
57327;SDS011;43162;51.040;18.244;2024-02-16T11:26:14;10.50;;;5.80;;
57327;SDS011;43162;51.040;18.244;2024-02-16T11:28:40;22.40;;;6.40;;
57327;SDS011;43162;51.040;18.244;2024-02-16T11:31:08;9.40;;;4.90;;
57327;SDS011;43162;51.040;18.244;2024-02-16T11:33:33;11.30;;;7.50;;
57327;SDS011;43162;51.040;18.244;2024-02-16T11:36:00;11.50;;;5.50;;
57327;SDS011;43162;51.040;18.244;2024-02-16T11:38:27;14.10;;;5.70;;
57327;SDS011;43162;51.040;18.244;2024-02-16T11:41:14;9.60;;;5.40;;
57327;SDS011;43162;51.040;18.244;2024-02-16T11:43:38;7.70;;;4.90;;
57327;SDS011;43162;51.040;18.244;2024-02-16T11:46:13;21.50;;;5.80;;
57327;SDS011;43162;51.040;18.244;2024-02-16T11:48:40;13.10;;;5.20;;
57327;SDS011;43162;51.040;18.244;2024-02-16T11:51:05;8.50;;;4.60;;
57327;SDS011;43162;51.040;18.244;2024-02-16T11:53:31;10.10;;;4.90;;
57327;SDS011;43162;51.040;18.244;2024-02-16T11:55:57;7.40;;;4.50;;
57327;SDS011;43162;51.040;18.244;2024-02-16T11:58:23;8.50;;;4.80;;
57327;SDS011;43162;51.040;18.244;2024-02-16T12:00:49;14.40;;;5.30;;
57327;SDS011;43162;51.040;18.244;2024-02-16T12:03:26;7.30;;;4.20;;
57327;SDS011;43162;51.040;18.244;2024-02-16T12:05:59;13.80;;;5.70;;
57327;SDS011;43162;51.040;18.244;2024-02-16T12:08:31;11.70;;;5.80;;
57327;SDS011;43162;51.040;18.244;2024-02-16T12:10:58;11.30;;;6.10;;
57327;SDS011;43162;51.040;18.244;2024-02-16T12:13:24;16.70;;;6.90;;
57327;SDS011;43162;51.040;18.244;2024-02-16T12:15:50;14.00;;;5.90;;
57327;SDS011;43162;51.040;18.244;2024-02-16T12:18:21;12.70;;;5.50;;
57327;SDS011;43162;51.040;18.244;2024-02-16T12:20:56;9.60;;;5.00;;
57327;SDS011;43162;51.040;18.244;2024-02-16T12:23:23;13.70;;;5.00;;
57327;SDS011;43162;51.040;18.244;2024-02-16T12:25:49;7.60;;;4.20;;
57327;SDS011;43162;51.040;18.244;2024-02-16T12:28:14;10.10;;;5.40;;
57327;SDS011;43162;51.040;18.244;2024-02-16T12:30:40;7.60;;;4.00;;
57327;SDS011;43162;51.040;18.244;2024-02-16T12:33:05;7.20;;;3.50;;
57327;SDS011;43162;51.040;18.244;2024-02-16T12:35:31;9.80;;;4.80;;
57327;SDS011;43162;51.040;18.244;2024-02-16T12:37:57;8.30;;;4.20;;
57327;SDS011;43162;51.040;18.244;2024-02-16T12:40:22;10.40;;;4.90;;
57327;SDS011;43162;51.040;18.244;2024-02-16T12:42:48;10.90;;;4.60;;
57327;SDS011;43162;51.040;18.244;2024-02-16T12:45:13;5.20;;;3.50;;
57327;SDS011;43162;51.040;18.244;2024-02-16T12:47:41;7.00;;;4.10;;
57327;SDS011;43162;51.040;18.244;2024-02-16T12:50:07;12.60;;;5.00;;
57327;SDS011;43162;51.040;18.244;2024-02-16T12:52:32;11.70;;;4.50;;
57327;SDS011;43162;51.040;18.244;2024-02-16T12:55:00;12.80;;;4.40;;
57327;SDS011;43162;51.040;18.244;2024-02-16T12:57:26;11.30;;;4.10;;
57327;SDS011;43162;51.040;18.244;2024-02-16T12:59:54;8.70;;;3.50;;
57327;SDS011;43162;51.040;18.244;2024-02-16T13:02:19;8.60;;;3.70;;
57327;SDS011;43162;51.040;18.244;2024-02-16T13:04:45;7.90;;;3.20;;
57327;SDS011;43162;51.040;18.244;2024-02-16T13:07:10;8.70;;;4.10;;
57327;SDS011;43162;51.040;18.244;2024-02-16T13:09:36;9.30;;;4.00;;
57327;SDS011;43162;51.040;18.244;2024-02-16T13:12:02;10.60;;;4.10;;
57327;SDS011;43162;51.040;18.244;2024-02-16T13:14:28;7.70;;;3.80;;
57327;SDS011;43162;51.040;18.244;2024-02-16T13:16:53;13.20;;;4.50;;
57327;SDS011;43162;51.040;18.244;2024-02-16T13:19:19;10.10;;;3.80;;
57327;SDS011;43162;51.040;18.244;2024-02-16T13:21:44;11.00;;;3.90;;
57327;SDS011;43162;51.040;18.244;2024-02-16T13:24:10;32.60;;;10.80;;
57327;SDS011;43162;51.040;18.244;2024-02-16T13:26:35;54.60;;;19.90;;
57327;SDS011;43162;51.040;18.244;2024-02-16T13:29:01;44.40;;;15.60;;
57327;SDS011;43162;51.040;18.244;2024-02-16T13:31:26;33.60;;;12.20;;
57327;SDS011;43162;51.040;18.244;2024-02-16T13:33:53;26.20;;;10.70;;
57327;SDS011;43162;51.040;18.244;2024-02-16T13:36:19;40.30;;;13.20;;
57327;SDS011;43162;51.040;18.244;2024-02-16T13:38:44;52.50;;;19.20;;
57327;SDS011;43162;51.040;18.244;2024-02-16T13:41:10;46.30;;;16.40;;
57327;SDS011;43162;51.040;18.244;2024-02-16T13:43:35;44.50;;;17.40;;
57327;SDS011;43162;51.040;18.244;2024-02-16T13:46:01;57.00;;;19.90;;
57327;SDS011;43162;51.040;18.244;2024-02-16T13:48:27;66.40;;;24.20;;
57327;SDS011;43162;51.040;18.244;2024-02-16T13:50:53;53.00;;;18.80;;
57327;SDS011;43162;51.040;18.244;2024-02-16T13:53:19;53.40;;;20.80;;
57327;SDS011;43162;51.040;18.244;2024-02-16T13:55:48;45.20;;;17.00;;
57327;SDS011;43162;51.040;18.244;2024-02-16T13:58:14;52.20;;;18.20;;
57327;SDS011;43162;51.040;18.244;2024-02-16T14:00:42;42.30;;;17.20;;
57327;SDS011;43162;51.040;18.244;2024-02-16T14:03:09;37.10;;;15.20;;
57327;SDS011;43162;51.040;18.244;2024-02-16T14:05:38;25.90;;;10.80;;
57327;SDS011;43162;51.040;18.244;2024-02-16T14:08:04;21.30;;;9.70;;
57327;SDS011;43162;51.040;18.244;2024-02-16T14:10:31;20.40;;;10.60;;